createdAt,value
2023-02-05T00:00:20.558Z,5.63
2023-02-05T00:02:47.631Z,9.68
2023-02-05T00:05:14.331Z,8.55
2023-02-05T00:07:40.990Z,10.43
2023-02-05T00:10:09.122Z,13.82
2023-02-05T00:12:36.830Z,10.57
2023-02-05T00:15:03.439Z,11.02
2023-02-05T00:17:30.181Z,8.50
2023-02-05T00:19:56.795Z,10.88
2023-02-05T00:22:23.598Z,9.30
2023-02-05T00:24:50.325Z,13.57
2023-02-05T00:27:16.977Z,7.88
2023-02-05T00:29:43.670Z,9.23
2023-02-05T00:32:10.418Z,9.38
2023-02-05T00:34:37.039Z,16.50
2023-02-05T00:37:03.636Z,14.10
2023-02-05T00:39:30.462Z,7.57
2023-02-05T00:41:57.177Z,7.13
2023-02-05T00:44:23.956Z,9.55
2023-02-05T00:46:50.614Z,14.63
2023-02-05T00:49:17.231Z,9.10
2023-02-05T00:51:46.160Z,14.43
2023-02-05T00:54:12.737Z,9.48
2023-02-05T00:56:39.523Z,13.35
2023-02-05T00:59:06.117Z,13.35
2023-02-05T01:01:32.909Z,6.07
2023-02-05T01:03:59.579Z,9.15
2023-02-05T01:06:26.416Z,9.50
2023-02-05T01:08:53.029Z,11.73
2023-02-05T01:11:20.368Z,6.32
2023-02-05T01:13:47.049Z,9.15
2023-02-05T01:16:14.894Z,11.23
2023-02-05T01:18:41.424Z,9.90
2023-02-05T01:21:08.165Z,8.32
2023-02-05T01:23:34.882Z,11.65
2023-02-05T01:26:01.704Z,8.43
2023-02-05T01:28:28.253Z,7.13
2023-02-05T01:30:55.434Z,10.57
2023-02-05T01:33:22.209Z,10.43
2023-02-05T01:35:48.829Z,9.52
2023-02-05T01:38:15.663Z,7.47
2023-02-05T01:40:42.828Z,12.00
2023-02-05T01:43:17.793Z,8.52
2023-02-05T01:46:01.103Z,10.20
2023-02-05T01:48:32.602Z,12.88
2023-02-05T01:51:06.388Z,13.05
2023-02-05T01:53:36.463Z,10.13
2023-02-05T01:56:38.183Z,10.65
2023-02-05T01:59:11.964Z,11.55
2023-02-05T02:01:41.046Z,14.82
2023-02-05T02:04:09.543Z,12.32
2023-02-05T02:06:36.951Z,12.57
2023-02-05T02:09:06.608Z,8.40
2023-02-05T02:11:37.645Z,15.20
2023-02-05T02:14:07.005Z,10.77
2023-02-05T02:16:36.442Z,11.10
2023-02-05T02:19:10.567Z,8.32
2023-02-05T02:22:14.688Z,9.68
2023-02-05T02:25:03.992Z,10.20
2023-02-05T02:27:45.935Z,12.50
2023-02-05T02:30:30.672Z,11.85
2023-02-05T02:33:16.046Z,8.20
2023-02-05T02:35:50.085Z,12.95
2023-02-05T02:38:45.351Z,13.48
2023-02-05T02:41:30.424Z,13.30
2023-02-05T02:43:59.752Z,10.90
2023-02-05T02:46:58.009Z,13.68
2023-02-05T02:49:35.645Z,9.18
2023-02-05T02:52:06.040Z,9.98
2023-02-05T02:54:35.926Z,12.68
2023-02-05T02:57:07.152Z,9.10
2023-02-05T02:59:37.626Z,11.85
2023-02-05T03:02:06.788Z,11.23
2023-02-05T03:04:40.151Z,13.80
2023-02-05T03:07:47.403Z,10.77
2023-02-05T03:10:23.807Z,17.02
2023-02-05T03:12:50.581Z,15.85
2023-02-05T03:15:17.350Z,18.92
2023-02-05T03:17:44.999Z,14.68
2023-02-05T03:20:58.487Z,13.07
2023-02-05T03:23:27.596Z,19.80
2023-02-05T03:25:55.475Z,14.40
2023-02-05T03:28:22.716Z,19.42
2023-02-05T03:31:10.165Z,13.73
2023-02-05T03:34:03.008Z,17.75
2023-02-05T03:36:53.890Z,15.80
2023-02-05T03:39:29.655Z,14.52
2023-02-05T03:42:06.146Z,13.55
2023-02-05T03:45:20.206Z,11.00
2023-02-05T03:48:21.275Z,13.10
2023-02-05T03:51:26.990Z,15.82
2023-02-05T03:53:56.585Z,19.65
2023-02-05T03:56:37.419Z,9.63
2023-02-05T03:59:05.845Z,14.32
2023-02-05T04:01:34.011Z,16.42
2023-02-05T04:04:00.651Z,21.70
2023-02-05T04:06:27.301Z,14.77
2023-02-05T04:08:53.920Z,18.70
2023-02-05T04:11:20.567Z,17.27
2023-02-05T04:13:47.201Z,18.48
2023-02-05T04:16:13.963Z,19.45
2023-02-05T04:18:40.574Z,19.23
2023-02-05T04:21:07.169Z,16.95
2023-02-05T04:23:33.904Z,17.77
2023-02-05T04:26:00.532Z,21.15
2023-02-05T04:28:27.099Z,20.42
2023-02-05T04:30:53.861Z,13.88
2023-02-05T04:33:20.713Z,18.90
2023-02-05T04:35:47.386Z,26.80
2023-02-05T04:38:14.124Z,17.05
2023-02-05T04:40:40.737Z,22.33
2023-02-05T04:43:07.545Z,21.55
2023-02-05T04:45:35.978Z,24.65
2023-02-05T04:48:02.841Z,23.65
2023-02-05T04:50:29.367Z,14.98
2023-02-05T04:52:56.214Z,23.38
2023-02-05T04:55:22.925Z,22.20
2023-02-05T04:57:51.333Z,20.35
2023-02-05T05:00:19.374Z,16.38
2023-02-05T05:02:46.152Z,20.98
2023-02-05T05:05:12.986Z,19.88
2023-02-05T05:07:39.693Z,25.02
2023-02-05T05:10:09.826Z,23.83
2023-02-05T05:12:37.210Z,18.75
2023-02-05T05:15:06.105Z,25.95
2023-02-05T05:17:35.063Z,19.45
2023-02-05T05:20:02.322Z,18.95
2023-02-05T05:22:29.171Z,23.60
2023-02-05T05:24:55.746Z,23.05
2023-02-05T05:27:24.482Z,21.80
2023-02-05T05:29:51.248Z,23.38
2023-02-05T05:32:17.913Z,21.88
2023-02-05T05:34:44.768Z,14.95
2023-02-05T05:37:11.345Z,18.48
2023-02-05T05:39:56.427Z,17.98
2023-02-05T05:42:41.577Z,23.10
2023-02-05T05:45:08.438Z,21.17
2023-02-05T05:47:35.095Z,22.02
2023-02-05T05:50:01.813Z,20.08
2023-02-05T05:52:30.363Z,25.33
2023-02-05T05:54:58.042Z,26.67
2023-02-05T05:57:25.945Z,24.85
2023-02-05T05:59:52.555Z,20.30
2023-02-05T06:02:19.295Z,25.98
2023-02-05T06:04:46.191Z,29.50
2023-02-05T06:07:12.759Z,38.50
2023-02-05T06:09:39.425Z,34.47
2023-02-05T06:12:06.297Z,33.70
2023-02-05T06:14:33.080Z,27.75
2023-02-05T06:16:59.790Z,29.88
2023-02-05T06:19:26.511Z,33.10
2023-02-05T06:21:53.093Z,23.20
2023-02-05T06:24:19.710Z,23.15
2023-02-05T06:26:46.418Z,33.53
2023-02-05T06:29:13.054Z,26.40
2023-02-05T06:31:39.731Z,20.80
2023-02-05T06:34:06.416Z,22.48
2023-02-05T06:36:33.017Z,16.98
2023-02-05T06:38:59.700Z,20.50
2023-02-05T06:41:26.248Z,14.70
2023-02-05T06:43:52.854Z,14.57
2023-02-05T06:46:19.553Z,16.23
2023-02-05T06:48:46.142Z,14.52
2023-02-05T06:51:13.654Z,12.25
2023-02-05T06:53:41.381Z,14.45
2023-02-05T06:56:07.931Z,16.67
2023-02-05T06:58:34.542Z,13.98
2023-02-05T07:01:02.551Z,14.20
2023-02-05T07:03:29.250Z,19.58
2023-02-05T07:05:55.913Z,13.52
2023-02-05T07:08:22.565Z,11.95
2023-02-05T07:10:49.162Z,11.85
2023-02-05T07:13:15.915Z,9.75
2023-02-05T07:15:42.540Z,9.65
2023-02-05T07:18:09.290Z,8.23
2023-02-05T07:20:36.759Z,5.97
2023-02-05T07:23:03.599Z,9.20
2023-02-05T07:25:36.257Z,5.38
2023-02-05T07:28:07.719Z,4.35
2023-02-05T07:30:37.688Z,5.30
2023-02-05T07:33:04.785Z,4.00
2023-02-05T07:35:33.287Z,4.20
2023-02-05T07:38:00.208Z,2.58
2023-02-05T07:40:27.291Z,3.60
2023-02-05T07:42:55.058Z,4.88
2023-02-05T07:45:21.858Z,2.67
2023-02-05T07:47:51.567Z,4.35
2023-02-05T07:50:18.477Z,2.63
2023-02-05T07:52:45.175Z,2.72
2023-02-05T07:55:11.794Z,2.75
2023-02-05T07:57:38.427Z,4.78
2023-02-05T08:00:05.900Z,3.67
2023-02-05T08:02:32.462Z,1.27
2023-02-05T08:04:59.064Z,2.35
2023-02-05T08:07:25.693Z,5.75
2023-02-05T08:09:52.412Z,4.50
2023-02-05T08:12:19.087Z,1.83
2023-02-05T08:14:45.653Z,6.57
2023-02-05T08:17:12.286Z,4.30
2023-02-05T08:19:38.868Z,1.85
2023-02-05T08:22:05.582Z,6.90
2023-02-05T08:24:32.704Z,3.35
2023-02-05T08:26:59.620Z,5.00
2023-02-05T08:29:26.274Z,0.75
2023-02-05T08:31:52.975Z,3.22
2023-02-05T08:34:20.921Z,3.10
2023-02-05T08:36:47.622Z,8.90
2023-02-05T08:39:14.646Z,6.22
2023-02-05T08:41:41.370Z,1.08
2023-02-05T08:44:08.059Z,3.42
2023-02-05T08:46:48.699Z,3.70
2023-02-05T08:49:17.204Z,4.63
2023-02-05T08:51:44.038Z,5.25
2023-02-05T08:54:13.350Z,7.75
2023-02-05T08:56:40.832Z,6.97
2023-02-05T08:59:09.096Z,3.25
2023-02-05T09:01:41.230Z,7.07
2023-02-05T09:04:08.168Z,4.47
2023-02-05T09:06:35.333Z,2.47
2023-02-05T09:09:01.993Z,6.15
2023-02-05T09:11:30.465Z,8.70
2023-02-05T09:13:58.688Z,1.92
2023-02-05T09:16:26.132Z,5.57
2023-02-05T09:18:57.178Z,9.57
2023-02-05T09:21:24.065Z,4.40
2023-02-05T09:23:51.813Z,8.15
2023-02-05T09:26:18.675Z,5.40
2023-02-05T09:28:45.774Z,6.88
2023-02-05T09:31:16.273Z,3.08
2023-02-05T09:33:46.279Z,3.45
2023-02-05T09:36:21.783Z,9.13
2023-02-05T09:38:50.024Z,3.03
2023-02-05T09:41:37.951Z,2.45
2023-02-05T09:44:10.128Z,3.15
2023-02-05T09:46:59.384Z,5.60
2023-02-05T09:49:46.567Z,3.50
2023-02-05T09:52:27.339Z,3.15
2023-02-05T09:55:02.382Z,4.78
2023-02-05T09:57:34.420Z,4.25
2023-02-05T10:00:02.242Z,7.50
2023-02-05T10:02:37.679Z,4.30
2023-02-05T10:05:14.146Z,5.47
2023-02-05T10:08:20.436Z,1.77
2023-02-05T10:10:50.147Z,3.38
2023-02-05T10:13:36.581Z,4.30
2023-02-05T10:16:23.460Z,3.53
2023-02-05T10:19:25.847Z,5.00
2023-02-05T10:22:12.652Z,3.78
2023-02-05T10:24:57.821Z,3.80
2023-02-05T10:28:10.272Z,4.07
2023-02-05T10:30:51.570Z,3.70
2023-02-05T10:33:27.892Z,4.45
2023-02-05T10:36:02.489Z,4.10
2023-02-05T10:38:34.873Z,2.95
2023-02-05T10:41:15.133Z,5.97
2023-02-05T10:44:10.640Z,3.03
2023-02-05T10:46:40.677Z,2.85
2023-02-05T10:49:25.645Z,2.72
2023-02-05T10:51:53.294Z,3.63
2023-02-05T10:54:22.597Z,5.88
2023-02-05T10:56:49.605Z,1.88
2023-02-05T10:59:23.781Z,4.25
2023-02-05T11:01:51.691Z,3.80
2023-02-05T11:04:47.049Z,3.97
2023-02-05T11:07:27.491Z,7.35
2023-02-05T11:09:54.143Z,16.38
2023-02-05T11:12:30.427Z,4.85
2023-02-05T11:15:02.718Z,9.40
2023-02-05T11:17:36.212Z,5.57
2023-02-05T11:20:23.664Z,4.20
2023-02-05T11:25:31.562Z,9.48
2023-02-05T11:27:59.524Z,9.48
2023-02-05T11:33:24.657Z,11.77
2023-02-05T11:36:01.370Z,9.32
2023-02-05T11:38:35.100Z,6.97
2023-02-05T11:41:08.414Z,5.88
2023-02-05T11:43:40.177Z,6.75
2023-02-05T11:46:09.675Z,5.97
2023-02-05T11:48:39.134Z,4.95
2023-02-05T11:51:09.673Z,8.05
2023-02-05T11:53:38.100Z,14.50
2023-02-05T11:56:13.587Z,6.40
2023-02-05T11:58:40.353Z,12.60
2023-02-05T12:01:22.075Z,11.32
2023-02-05T12:04:02.529Z,10.23
2023-02-05T12:06:42.047Z,6.10
2023-02-05T12:09:14.731Z,10.48
2023-02-05T12:12:00.196Z,11.20
2023-02-05T12:14:50.596Z,9.13
2023-02-05T12:17:33.528Z,12.00
2023-02-05T12:20:43.491Z,10.75
2023-02-05T12:23:35.847Z,10.00
2023-02-05T12:26:11.359Z,11.38
2023-02-05T12:28:55.470Z,12.50
2023-02-05T12:31:45.576Z,12.05
2023-02-05T12:34:35.081Z,14.02
2023-02-05T12:37:22.581Z,9.75
2023-02-05T12:40:10.170Z,9.55
2023-02-05T12:42:45.105Z,11.95
2023-02-05T12:45:39.999Z,9.77
2023-02-05T12:48:44.161Z,10.25
2023-02-05T12:51:42.872Z,20.95
2023-02-05T12:54:15.459Z,10.38
2023-02-05T12:57:02.968Z,13.38
2023-02-05T12:59:54.881Z,6.45
2023-02-05T13:02:32.748Z,14.18
2023-02-05T13:05:23.809Z,10.43
2023-02-05T13:08:01.416Z,8.63
2023-02-05T13:10:38.722Z,10.98
2023-02-05T13:13:11.416Z,14.05
2023-02-05T13:15:43.344Z,17.23
2023-02-05T13:18:21.274Z,19.83
2023-02-05T13:21:17.089Z,18.70
2023-02-05T13:24:05.321Z,17.55
2023-02-05T13:27:01.606Z,11.18
2023-02-05T13:29:32.212Z,26.77
2023-02-05T13:32:15.228Z,27.05
2023-02-05T13:34:43.230Z,19.08
2023-02-05T13:37:35.826Z,14.05
2023-02-05T13:40:23.695Z,16.70
2023-02-05T13:42:56.452Z,16.65
2023-02-05T13:46:01.066Z,17.95
2023-02-05T13:49:05.302Z,18.20
2023-02-05T13:51:40.097Z,14.13
2023-02-05T13:54:50.480Z,19.45
2023-02-05T13:57:32.199Z,16.95
2023-02-05T14:00:00.862Z,11.05
2023-02-05T14:02:40.062Z,8.05
2023-02-05T14:05:07.742Z,17.88
2023-02-05T14:07:43.650Z,13.90
2023-02-05T14:10:29.494Z,15.93
2023-02-05T14:13:33.843Z,13.05
2023-02-05T14:16:25.667Z,15.38
2023-02-05T14:19:01.428Z,12.23
2023-02-05T14:21:31.193Z,12.32
2023-02-05T14:24:03.885Z,12.55
2023-02-05T14:26:56.606Z,15.65
2023-02-05T14:29:45.215Z,11.20
2023-02-05T14:32:27.442Z,13.52
2023-02-05T14:35:05.367Z,16.50
2023-02-05T14:37:44.087Z,18.45
2023-02-05T14:40:29.234Z,16.27
2023-02-05T14:43:11.802Z,16.35
2023-02-05T14:45:52.119Z,10.90
2023-02-05T14:48:27.030Z,10.73
2023-02-05T14:51:08.187Z,9.02
2023-02-05T14:53:38.098Z,16.55
2023-02-05T14:56:05.555Z,15.82
2023-02-05T14:58:44.387Z,25.83
2023-02-05T15:01:30.884Z,24.92
2023-02-05T15:04:00.415Z,25.52
2023-02-05T15:06:29.690Z,73.70
2023-02-05T15:09:11.702Z,20.65
2023-02-05T15:12:15.949Z,17.50
2023-02-05T15:14:53.847Z,14.55
2023-02-05T15:17:29.866Z,22.08
2023-02-05T15:20:19.861Z,15.25
2023-02-05T15:23:02.098Z,14.60
2023-02-05T15:25:37.468Z,17.15
2023-02-05T15:28:29.175Z,20.45
2023-02-05T15:31:22.723Z,14.40
2023-02-05T15:34:00.212Z,23.83
2023-02-05T15:36:41.988Z,19.63
2023-02-05T15:39:24.532Z,18.40
2023-02-05T15:41:55.381Z,19.67
2023-02-05T15:44:35.183Z,17.65
2023-02-05T15:47:15.386Z,14.13
2023-02-05T15:49:49.746Z,25.45
2023-02-05T15:52:23.707Z,17.45
2023-02-05T15:54:51.819Z,17.35
2023-02-05T15:57:23.433Z,14.00
2023-02-05T15:59:51.877Z,19.00
2023-02-05T16:02:22.262Z,10.30
2023-02-05T16:05:01.424Z,22.90
2023-02-05T16:07:31.240Z,12.95
2023-02-05T16:10:02.380Z,12.57
2023-02-05T16:12:30.617Z,20.00
2023-02-05T16:15:07.540Z,21.33
2023-02-05T16:17:46.357Z,13.93
2023-02-05T16:20:39.093Z,24.25
2023-02-05T16:23:08.215Z,17.00
2023-02-05T16:25:50.570Z,15.65
2023-02-05T16:28:21.191Z,14.07
2023-02-05T16:30:52.490Z,14.00
2023-02-05T16:33:49.206Z,15.38
2023-02-05T16:36:21.200Z,18.70
2023-02-05T16:39:03.802Z,26.95
2023-02-05T16:41:42.290Z,17.85
2023-02-05T16:44:27.641Z,22.48
2023-02-05T16:47:14.425Z,22.67
2023-02-05T16:49:42.901Z,24.05
2023-02-05T16:52:26.173Z,17.45
2023-02-05T16:54:52.884Z,19.17
2023-02-05T16:57:31.325Z,17.63
2023-02-05T17:00:27.943Z,23.02
2023-02-05T17:02:58.188Z,21.83
2023-02-05T17:05:33.733Z,14.02
2023-02-05T17:08:09.470Z,23.88
2023-02-05T17:10:54.174Z,20.75
2023-02-05T17:13:49.020Z,20.58
2023-02-05T17:16:30.509Z,19.05
2023-02-05T17:19:04.453Z,18.38
2023-02-05T17:21:33.616Z,18.73
2023-02-05T17:24:04.996Z,21.42
2023-02-05T17:26:34.954Z,21.63
2023-02-05T17:29:04.725Z,28.05
2023-02-05T17:31:36.631Z,15.10
2023-02-05T17:34:03.396Z,21.25
2023-02-05T17:36:30.036Z,20.05
2023-02-05T17:38:57.603Z,19.65
2023-02-05T17:41:45.188Z,24.60
2023-02-05T17:44:15.820Z,20.45
2023-02-05T17:46:43.569Z,18.00
2023-02-05T17:49:10.558Z,22.50
2023-02-05T17:51:42.730Z,24.63
2023-02-05T17:54:21.180Z,20.23
2023-02-05T17:56:48.779Z,28.05
2023-02-05T17:59:21.386Z,22.15
2023-02-05T18:01:49.786Z,26.30
2023-02-05T18:04:18.698Z,21.85
2023-02-05T18:06:47.065Z,26.42
2023-02-05T18:09:13.840Z,26.75
2023-02-05T18:11:40.581Z,21.00
2023-02-05T18:14:08.512Z,19.42
2023-02-05T18:16:35.884Z,27.20
2023-02-05T18:19:02.546Z,25.50
2023-02-05T18:21:29.352Z,20.90
2023-02-05T18:23:55.963Z,23.77
2023-02-05T18:26:22.737Z,21.42
2023-02-05T18:28:49.957Z,28.63
2023-02-05T18:31:16.738Z,31.52
2023-02-05T18:33:43.379Z,23.02
2023-02-05T18:36:13.523Z,25.95
2023-02-05T18:38:43.049Z,25.92
2023-02-05T18:41:12.824Z,30.10
2023-02-05T18:43:40.126Z,23.88
2023-02-05T18:46:12.636Z,22.65
2023-02-05T18:48:42.323Z,17.33
2023-02-05T18:51:12.736Z,16.17
2023-02-05T18:53:40.236Z,22.80
2023-02-05T18:56:16.362Z,37.88
2023-02-05T18:58:45.048Z,19.35
2023-02-05T19:01:17.935Z,21.85
2023-02-05T19:03:45.713Z,41.42
2023-02-05T19:06:15.073Z,17.95
2023-02-05T19:08:42.687Z,23.38
2023-02-05T19:11:21.088Z,24.98
2023-02-05T19:13:53.986Z,19.88
2023-02-05T19:16:21.024Z,21.92
2023-02-05T19:18:47.667Z,23.42
2023-02-05T19:21:17.216Z,27.55
2023-02-05T19:23:45.245Z,24.20
2023-02-05T19:26:16.895Z,14.95
2023-02-05T19:28:45.996Z,25.40
2023-02-05T19:31:15.432Z,25.52
2023-02-05T19:33:43.089Z,13.52
2023-02-05T19:36:11.316Z,20.15
2023-02-05T19:38:40.299Z,15.35
2023-02-05T19:41:16.894Z,27.85
2023-02-05T19:43:50.560Z,15.38
2023-02-05T19:46:19.236Z,18.80
2023-02-05T19:48:47.002Z,20.60
2023-02-05T19:51:14.832Z,19.83
2023-02-05T19:53:45.878Z,36.35
2023-02-05T19:56:21.462Z,34.42
2023-02-05T19:58:50.730Z,20.02
2023-02-05T20:01:24.542Z,19.00
2023-02-05T20:03:53.208Z,22.08
2023-02-05T20:06:21.761Z,15.93
2023-02-05T20:08:48.864Z,12.85
2023-02-05T20:11:16.603Z,14.75
2023-02-05T20:13:44.093Z,17.17
2023-02-05T20:16:22.386Z,19.23
2023-02-05T20:18:58.106Z,12.50
2023-02-05T20:21:26.740Z,15.20
2023-02-05T20:23:54.832Z,25.40
2023-02-05T20:26:22.361Z,18.25
2023-02-05T20:29:13.120Z,13.48
2023-02-05T20:31:51.500Z,16.13
2023-02-05T20:34:22.633Z,16.58
2023-02-05T20:37:00.532Z,13.88
2023-02-05T20:39:29.081Z,18.27
2023-02-05T20:41:58.156Z,19.13
2023-02-05T20:44:29.911Z,19.85
2023-02-05T20:46:56.681Z,11.90
2023-02-05T20:49:23.598Z,18.55
2023-02-05T20:51:50.361Z,21.25
2023-02-05T20:54:17.450Z,19.92
2023-02-05T20:56:44.066Z,18.70
2023-02-05T20:59:11.936Z,24.35
2023-02-05T21:01:40.075Z,26.67
2023-02-05T21:04:08.345Z,20.27
2023-02-05T21:06:37.698Z,15.20
2023-02-05T21:09:05.965Z,14.93
2023-02-05T21:11:32.761Z,26.00
2023-02-05T21:13:59.755Z,14.90
2023-02-05T21:16:28.031Z,13.75
2023-02-05T21:18:55.454Z,19.60
2023-02-05T21:21:30.956Z,14.85
2023-02-05T21:24:03.543Z,22.27
2023-02-05T21:26:36.365Z,14.50
2023-02-05T21:29:11.835Z,26.88
2023-02-05T21:31:46.416Z,13.88
2023-02-05T21:34:17.050Z,22.65
2023-02-05T21:36:44.899Z,15.55
2023-02-05T21:39:12.378Z,16.80
2023-02-05T21:41:39.318Z,16.25
2023-02-05T21:44:05.991Z,13.57
2023-02-05T21:46:32.720Z,19.80
2023-02-05T21:49:00.718Z,10.07
2023-02-05T21:51:30.098Z,16.42
2023-02-05T21:53:59.181Z,19.08
2023-02-05T21:56:32.190Z,19.33
2023-02-05T21:58:58.931Z,7.72
2023-02-05T22:01:28.367Z,19.20
2023-02-05T22:03:57.740Z,13.80
2023-02-05T22:06:26.734Z,15.45
2023-02-05T22:08:55.113Z,15.93
2023-02-05T22:11:24.043Z,14.48
2023-02-05T22:13:52.386Z,16.42
2023-02-05T22:16:22.715Z,18.67
2023-02-05T22:18:49.935Z,14.57
2023-02-05T22:21:24.777Z,18.50
2023-02-05T22:23:53.551Z,16.85
2023-02-05T22:26:23.469Z,13.82
2023-02-05T22:28:50.723Z,11.30
2023-02-05T22:31:19.113Z,16.27
2023-02-05T22:33:48.260Z,16.42
2023-02-05T22:36:16.999Z,19.38
2023-02-05T22:38:43.806Z,28.58
2023-02-05T22:41:12.892Z,12.82
2023-02-05T22:43:40.076Z,17.27
2023-02-05T22:46:08.510Z,13.15
2023-02-05T22:48:36.943Z,12.55
2023-02-05T22:51:05.023Z,15.05
2023-02-05T22:53:32.262Z,12.43
2023-02-05T22:56:10.892Z,16.35
2023-02-05T22:58:45.225Z,13.70
2023-02-05T23:01:18.021Z,16.20
2023-02-05T23:03:50.971Z,15.68
2023-02-05T23:06:25.274Z,16.88
2023-02-05T23:08:56.335Z,15.55
2023-02-05T23:11:24.533Z,16.67
2023-02-05T23:13:52.009Z,18.88
2023-02-05T23:16:27.703Z,16.75
2023-02-05T23:18:57.769Z,18.88
2023-02-05T23:21:26.284Z,12.57
2023-02-05T23:23:53.103Z,11.27
2023-02-05T23:26:22.538Z,11.65
2023-02-05T23:28:50.573Z,12.20
2023-02-05T23:31:17.830Z,20.38
2023-02-05T23:33:44.628Z,14.32
2023-02-05T23:36:12.088Z,9.20
2023-02-05T23:38:39.030Z,13.63
2023-02-05T23:41:06.637Z,17.52
2023-02-05T23:43:35.715Z,12.20
2023-02-05T23:46:02.306Z,12.50
2023-02-05T23:48:29.266Z,11.50
2023-02-05T23:50:57.099Z,17.73
2023-02-05T23:53:23.992Z,17.95
2023-02-05T23:55:52.423Z,11.20
2023-02-05T23:58:20.471Z,10.70
